sensor_id;sensor_type;location;lat;lon;timestamp;P1;durP1;ratioP1;P2;durP2;ratioP2
60867;SDS011;46702;48.370;10.794;2023-07-08T00:00:42;10.15;;;5.78;;
60867;SDS011;46702;48.370;10.794;2023-07-08T00:03:08;10.85;;;6.47;;
60867;SDS011;46702;48.370;10.794;2023-07-08T00:05:34;9.55;;;5.65;;
60867;SDS011;46702;48.370;10.794;2023-07-08T00:08:00;10.27;;;5.70;;
60867;SDS011;46702;48.370;10.794;2023-07-08T00:10:27;12.95;;;5.72;;
60867;SDS011;46702;48.370;10.794;2023-07-08T00:12:54;11.00;;;6.03;;
60867;SDS011;46702;48.370;10.794;2023-07-08T00:15:22;13.18;;;5.65;;
60867;SDS011;46702;48.370;10.794;2023-07-08T00:17:57;8.02;;;5.35;;
60867;SDS011;46702;48.370;10.794;2023-07-08T00:20:26;10.27;;;5.57;;
60867;SDS011;46702;48.370;10.794;2023-07-08T00:22:56;12.30;;;6.43;;
60867;SDS011;46702;48.370;10.794;2023-07-08T00:25:22;8.52;;;5.50;;
60867;SDS011;46702;48.370;10.794;2023-07-08T00:27:48;9.60;;;5.38;;
60867;SDS011;46702;48.370;10.794;2023-07-08T00:32:44;11.00;;;5.65;;
60867;SDS011;46702;48.370;10.794;2023-07-08T00:35:10;9.15;;;5.70;;
60867;SDS011;46702;48.370;10.794;2023-07-08T00:37:36;10.27;;;6.18;;
60867;SDS011;46702;48.370;10.794;2023-07-08T00:40:02;9.73;;;5.68;;
60867;SDS011;46702;48.370;10.794;2023-07-08T00:42:39;12.00;;;6.38;;
60867;SDS011;46702;48.370;10.794;2023-07-08T00:45:20;8.73;;;5.40;;
60867;SDS011;46702;48.370;10.794;2023-07-08T00:48:25;11.20;;;5.25;;
60867;SDS011;46702;48.370;10.794;2023-07-08T00:50:54;8.70;;;5.32;;
60867;SDS011;46702;48.370;10.794;2023-07-08T00:53:28;7.70;;;4.90;;
60867;SDS011;46702;48.370;10.794;2023-07-08T00:56:21;8.98;;;5.22;;
60867;SDS011;46702;48.370;10.794;2023-07-08T00:58:53;7.90;;;4.70;;
60867;SDS011;46702;48.370;10.794;2023-07-08T01:01:21;9.55;;;5.30;;
60867;SDS011;46702;48.370;10.794;2023-07-08T01:03:48;8.63;;;4.70;;
60867;SDS011;46702;48.370;10.794;2023-07-08T01:06:21;7.97;;;4.72;;
60867;SDS011;46702;48.370;10.794;2023-07-08T01:08:48;7.65;;;4.95;;
60867;SDS011;46702;48.370;10.794;2023-07-08T01:11:17;7.97;;;4.65;;
60867;SDS011;46702;48.370;10.794;2023-07-08T01:13:46;9.45;;;5.47;;
60867;SDS011;46702;48.370;10.794;2023-07-08T01:16:15;9.32;;;4.97;;
60867;SDS011;46702;48.370;10.794;2023-07-08T01:18:42;8.63;;;4.95;;
60867;SDS011;46702;48.370;10.794;2023-07-08T01:23:55;9.27;;;5.32;;
60867;SDS011;46702;48.370;10.794;2023-07-08T01:26:22;6.80;;;4.07;;
60867;SDS011;46702;48.370;10.794;2023-07-08T01:31:16;10.65;;;5.00;;
60867;SDS011;46702;48.370;10.794;2023-07-08T01:33:42;8.95;;;4.93;;
60867;SDS011;46702;48.370;10.794;2023-07-08T01:36:11;9.13;;;4.70;;
60867;SDS011;46702;48.370;10.794;2023-07-08T01:38:37;6.07;;;4.47;;
60867;SDS011;46702;48.370;10.794;2023-07-08T01:41:04;7.88;;;5.07;;
60867;SDS011;46702;48.370;10.794;2023-07-08T01:43:31;6.72;;;4.63;;
60867;SDS011;46702;48.370;10.794;2023-07-08T01:45:58;6.95;;;4.65;;
60867;SDS011;46702;48.370;10.794;2023-07-08T01:48:26;6.80;;;4.72;;
60867;SDS011;46702;48.370;10.794;2023-07-08T01:51:03;8.48;;;4.60;;
60867;SDS011;46702;48.370;10.794;2023-07-08T01:53:40;9.38;;;4.70;;
60867;SDS011;46702;48.370;10.794;2023-07-08T01:56:07;7.97;;;4.82;;
60867;SDS011;46702;48.370;10.794;2023-07-08T01:58:34;7.72;;;5.10;;
60867;SDS011;46702;48.370;10.794;2023-07-08T02:01:00;7.90;;;5.00;;
60867;SDS011;46702;48.370;10.794;2023-07-08T02:03:26;6.55;;;4.50;;
60867;SDS011;46702;48.370;10.794;2023-07-08T02:05:52;7.85;;;4.93;;
60867;SDS011;46702;48.370;10.794;2023-07-08T02:08:18;8.02;;;4.90;;
60867;SDS011;46702;48.370;10.794;2023-07-08T02:10:49;7.80;;;4.57;;
60867;SDS011;46702;48.370;10.794;2023-07-08T02:13:16;7.45;;;4.93;;
60867;SDS011;46702;48.370;10.794;2023-07-08T02:15:42;9.27;;;5.00;;
60867;SDS011;46702;48.370;10.794;2023-07-08T02:18:08;6.30;;;4.68;;
60867;SDS011;46702;48.370;10.794;2023-07-08T02:20:33;7.43;;;4.78;;
60867;SDS011;46702;48.370;10.794;2023-07-08T02:22:59;7.40;;;4.55;;
60867;SDS011;46702;48.370;10.794;2023-07-08T02:25:24;7.65;;;4.35;;
60867;SDS011;46702;48.370;10.794;2023-07-08T02:27:50;6.53;;;4.38;;
60867;SDS011;46702;48.370;10.794;2023-07-08T02:30:16;9.02;;;4.55;;
60867;SDS011;46702;48.370;10.794;2023-07-08T02:32:42;9.68;;;4.82;;
60867;SDS011;46702;48.370;10.794;2023-07-08T02:35:21;7.72;;;4.93;;
60867;SDS011;46702;48.370;10.794;2023-07-08T02:37:49;7.33;;;5.20;;
60867;SDS011;46702;48.370;10.794;2023-07-08T02:40:14;8.35;;;4.63;;
60867;SDS011;46702;48.370;10.794;2023-07-08T02:42:40;7.50;;;4.53;;
60867;SDS011;46702;48.370;10.794;2023-07-08T02:45:05;7.18;;;4.38;;
60867;SDS011;46702;48.370;10.794;2023-07-08T02:47:32;7.75;;;4.80;;
60867;SDS011;46702;48.370;10.794;2023-07-08T02:49:57;7.95;;;4.55;;
60867;SDS011;46702;48.370;10.794;2023-07-08T02:52:23;6.72;;;4.25;;
60867;SDS011;46702;48.370;10.794;2023-07-08T02:54:48;14.82;;;4.80;;
60867;SDS011;46702;48.370;10.794;2023-07-08T02:57:14;9.40;;;5.18;;
60867;SDS011;46702;48.370;10.794;2023-07-08T02:59:39;6.78;;;4.57;;
60867;SDS011;46702;48.370;10.794;2023-07-08T03:02:05;6.40;;;4.20;;
60867;SDS011;46702;48.370;10.794;2023-07-08T03:04:31;8.32;;;4.38;;
60867;SDS011;46702;48.370;10.794;2023-07-08T03:06:56;7.15;;;4.10;;
60867;SDS011;46702;48.370;10.794;2023-07-08T03:09:22;6.60;;;4.60;;
60867;SDS011;46702;48.370;10.794;2023-07-08T03:11:47;7.75;;;4.70;;
60867;SDS011;46702;48.370;10.794;2023-07-08T03:14:13;7.43;;;4.40;;
60867;SDS011;46702;48.370;10.794;2023-07-08T03:16:39;7.55;;;4.53;;
60867;SDS011;46702;48.370;10.794;2023-07-08T03:19:04;7.55;;;4.30;;
60867;SDS011;46702;48.370;10.794;2023-07-08T03:21:30;9.38;;;4.70;;
60867;SDS011;46702;48.370;10.794;2023-07-08T03:23:56;6.88;;;4.72;;
60867;SDS011;46702;48.370;10.794;2023-07-08T03:26:23;10.18;;;5.38;;
60867;SDS011;46702;48.370;10.794;2023-07-08T03:28:51;10.40;;;5.07;;
60867;SDS011;46702;48.370;10.794;2023-07-08T03:31:16;8.35;;;4.40;;
60867;SDS011;46702;48.370;10.794;2023-07-08T03:33:42;6.70;;;4.30;;
60867;SDS011;46702;48.370;10.794;2023-07-08T03:36:12;7.82;;;4.47;;
60867;SDS011;46702;48.370;10.794;2023-07-08T03:38:50;8.32;;;4.10;;
60867;SDS011;46702;48.370;10.794;2023-07-08T03:41:23;9.52;;;4.95;;
60867;SDS011;46702;48.370;10.794;2023-07-08T03:43:49;6.30;;;4.05;;
60867;SDS011;46702;48.370;10.794;2023-07-08T03:46:19;5.90;;;4.30;;
60867;SDS011;46702;48.370;10.794;2023-07-08T03:48:48;6.47;;;4.70;;
60867;SDS011;46702;48.370;10.794;2023-07-08T03:51:20;8.05;;;4.40;;
60867;SDS011;46702;48.370;10.794;2023-07-08T03:53:54;8.23;;;4.18;;
60867;SDS011;46702;48.370;10.794;2023-07-08T03:56:19;7.00;;;4.85;;
60867;SDS011;46702;48.370;10.794;2023-07-08T03:58:45;6.78;;;4.40;;
60867;SDS011;46702;48.370;10.794;2023-07-08T04:01:18;8.73;;;5.35;;
60867;SDS011;46702;48.370;10.794;2023-07-08T04:03:45;7.25;;;4.43;;
60867;SDS011;46702;48.370;10.794;2023-07-08T04:06:11;7.40;;;4.57;;
60867;SDS011;46702;48.370;10.794;2023-07-08T04:08:37;8.13;;;4.75;;
60867;SDS011;46702;48.370;10.794;2023-07-08T04:11:03;9.52;;;4.47;;
60867;SDS011;46702;48.370;10.794;2023-07-08T04:13:29;9.40;;;5.30;;
60867;SDS011;46702;48.370;10.794;2023-07-08T04:15:55;10.98;;;5.40;;
60867;SDS011;46702;48.370;10.794;2023-07-08T04:18:24;11.10;;;4.97;;
60867;SDS011;46702;48.370;10.794;2023-07-08T04:20:49;8.27;;;4.50;;
60867;SDS011;46702;48.370;10.794;2023-07-08T04:23:20;6.82;;;4.95;;
60867;SDS011;46702;48.370;10.794;2023-07-08T04:25:49;9.00;;;5.10;;
60867;SDS011;46702;48.370;10.794;2023-07-08T04:28:18;7.88;;;4.90;;
60867;SDS011;46702;48.370;10.794;2023-07-08T04:30:44;6.95;;;4.53;;
60867;SDS011;46702;48.370;10.794;2023-07-08T04:33:11;7.22;;;4.20;;
60867;SDS011;46702;48.370;10.794;2023-07-08T04:35:38;8.77;;;4.50;;
60867;SDS011;46702;48.370;10.794;2023-07-08T04:38:05;8.82;;;4.53;;
60867;SDS011;46702;48.370;10.794;2023-07-08T04:40:42;7.00;;;4.72;;
60867;SDS011;46702;48.370;10.794;2023-07-08T04:43:07;7.72;;;4.97;;
60867;SDS011;46702;48.370;10.794;2023-07-08T04:45:35;6.82;;;4.65;;
60867;SDS011;46702;48.370;10.794;2023-07-08T04:48:02;9.50;;;5.38;;
60867;SDS011;46702;48.370;10.794;2023-07-08T04:50:33;6.18;;;4.50;;
60867;SDS011;46702;48.370;10.794;2023-07-08T04:52:59;8.70;;;5.22;;
60867;SDS011;46702;48.370;10.794;2023-07-08T04:55:25;7.30;;;4.60;;
60867;SDS011;46702;48.370;10.794;2023-07-08T04:57:51;8.85;;;5.05;;
60867;SDS011;46702;48.370;10.794;2023-07-08T05:00:17;7.90;;;4.78;;
60867;SDS011;46702;48.370;10.794;2023-07-08T05:02:44;8.02;;;5.60;;
60867;SDS011;46702;48.370;10.794;2023-07-08T05:05:10;7.93;;;4.90;;
60867;SDS011;46702;48.370;10.794;2023-07-08T05:07:36;6.18;;;4.18;;
60867;SDS011;46702;48.370;10.794;2023-07-08T05:10:01;6.85;;;4.30;;
60867;SDS011;46702;48.370;10.794;2023-07-08T05:12:30;7.35;;;4.68;;
60867;SDS011;46702;48.370;10.794;2023-07-08T05:14:56;11.02;;;4.88;;
60867;SDS011;46702;48.370;10.794;2023-07-08T05:17:21;8.32;;;4.95;;
60867;SDS011;46702;48.370;10.794;2023-07-08T05:19:47;6.95;;;4.65;;
60867;SDS011;46702;48.370;10.794;2023-07-08T05:22:16;7.15;;;4.90;;
60867;SDS011;46702;48.370;10.794;2023-07-08T05:24:43;6.17;;;4.37;;
60867;SDS011;46702;48.370;10.794;2023-07-08T05:27:08;7.80;;;4.47;;
60867;SDS011;46702;48.370;10.794;2023-07-08T05:29:34;8.00;;;4.70;;
60867;SDS011;46702;48.370;10.794;2023-07-08T05:32:00;7.57;;;4.53;;
60867;SDS011;46702;48.370;10.794;2023-07-08T05:34:25;8.45;;;4.57;;
60867;SDS011;46702;48.370;10.794;2023-07-08T05:36:51;8.57;;;4.30;;
60867;SDS011;46702;48.370;10.794;2023-07-08T05:39:16;7.10;;;4.10;;
60867;SDS011;46702;48.370;10.794;2023-07-08T05:41:42;7.28;;;4.50;;
60867;SDS011;46702;48.370;10.794;2023-07-08T05:44:07;6.70;;;4.53;;
60867;SDS011;46702;48.370;10.794;2023-07-08T05:46:33;6.65;;;4.15;;
60867;SDS011;46702;48.370;10.794;2023-07-08T05:48:59;6.82;;;4.57;;
60867;SDS011;46702;48.370;10.794;2023-07-08T05:51:24;8.30;;;4.50;;
60867;SDS011;46702;48.370;10.794;2023-07-08T05:53:50;8.93;;;4.93;;
60867;SDS011;46702;48.370;10.794;2023-07-08T05:56:15;6.15;;;4.30;;
60867;SDS011;46702;48.370;10.794;2023-07-08T05:58:41;8.23;;;4.60;;
60867;SDS011;46702;48.370;10.794;2023-07-08T06:01:06;7.05;;;4.50;;
60867;SDS011;46702;48.370;10.794;2023-07-08T06:03:32;6.35;;;4.28;;
60867;SDS011;46702;48.370;10.794;2023-07-08T06:05:57;7.60;;;4.63;;
60867;SDS011;46702;48.370;10.794;2023-07-08T06:08:23;8.10;;;5.43;;
60867;SDS011;46702;48.370;10.794;2023-07-08T06:10:49;6.68;;;4.80;;
60867;SDS011;46702;48.370;10.794;2023-07-08T06:13:15;7.72;;;4.65;;
60867;SDS011;46702;48.370;10.794;2023-07-08T06:15:41;8.00;;;4.80;;
60867;SDS011;46702;48.370;10.794;2023-07-08T06:18:07;6.57;;;4.40;;
60867;SDS011;46702;48.370;10.794;2023-07-08T06:20:33;7.78;;;4.65;;
60867;SDS011;46702;48.370;10.794;2023-07-08T06:22:58;8.18;;;4.88;;
60867;SDS011;46702;48.370;10.794;2023-07-08T06:25:24;9.90;;;4.78;;
60867;SDS011;46702;48.370;10.794;2023-07-08T06:27:50;9.13;;;5.40;;
60867;SDS011;46702;48.370;10.794;2023-07-08T06:30:15;7.28;;;4.45;;
60867;SDS011;46702;48.370;10.794;2023-07-08T06:32:41;8.80;;;4.80;;
60867;SDS011;46702;48.370;10.794;2023-07-08T06:35:06;7.13;;;4.45;;
60867;SDS011;46702;48.370;10.794;2023-07-08T06:37:32;8.73;;;5.35;;
60867;SDS011;46702;48.370;10.794;2023-07-08T06:39:58;7.18;;;5.03;;
60867;SDS011;46702;48.370;10.794;2023-07-08T06:42:24;8.90;;;5.00;;
60867;SDS011;46702;48.370;10.794;2023-07-08T06:44:49;8.05;;;4.68;;
60867;SDS011;46702;48.370;10.794;2023-07-08T06:47:18;7.60;;;4.43;;
60867;SDS011;46702;48.370;10.794;2023-07-08T06:49:45;7.93;;;4.88;;
60867;SDS011;46702;48.370;10.794;2023-07-08T06:52:12;8.30;;;4.88;;
60867;SDS011;46702;48.370;10.794;2023-07-08T06:54:38;6.95;;;4.28;;
60867;SDS011;46702;48.370;10.794;2023-07-08T06:57:03;7.55;;;4.55;;
60867;SDS011;46702;48.370;10.794;2023-07-08T06:59:29;8.55;;;4.97;;
60867;SDS011;46702;48.370;10.794;2023-07-08T07:01:56;8.55;;;4.90;;
60867;SDS011;46702;48.370;10.794;2023-07-08T07:04:22;10.48;;;5.53;;
60867;SDS011;46702;48.370;10.794;2023-07-08T07:06:47;8.10;;;4.93;;
60867;SDS011;46702;48.370;10.794;2023-07-08T07:09:13;11.45;;;6.18;;
60867;SDS011;46702;48.370;10.794;2023-07-08T07:11:38;9.93;;;5.43;;
60867;SDS011;46702;48.370;10.794;2023-07-08T07:14:04;9.02;;;5.82;;
60867;SDS011;46702;48.370;10.794;2023-07-08T07:16:29;9.00;;;4.70;;
60867;SDS011;46702;48.370;10.794;2023-07-08T07:18:55;9.60;;;4.88;;
60867;SDS011;46702;48.370;10.794;2023-07-08T07:21:21;8.98;;;5.60;;
60867;SDS011;46702;48.370;10.794;2023-07-08T07:23:46;9.23;;;5.53;;
60867;SDS011;46702;48.370;10.794;2023-07-08T07:26:12;8.27;;;5.43;;
60867;SDS011;46702;48.370;10.794;2023-07-08T07:28:38;9.23;;;5.40;;
60867;SDS011;46702;48.370;10.794;2023-07-08T07:31:04;8.20;;;5.00;;
60867;SDS011;46702;48.370;10.794;2023-07-08T07:35:59;9.20;;;5.20;;
60867;SDS011;46702;48.370;10.794;2023-07-08T07:38:24;9.73;;;5.68;;
60867;SDS011;46702;48.370;10.794;2023-07-08T07:40:54;10.13;;;5.25;;
60867;SDS011;46702;48.370;10.794;2023-07-08T07:43:20;10.15;;;5.65;;
60867;SDS011;46702;48.370;10.794;2023-07-08T07:45:52;7.85;;;5.20;;
60867;SDS011;46702;48.370;10.794;2023-07-08T07:48:21;9.93;;;5.72;;
60867;SDS011;46702;48.370;10.794;2023-07-08T07:50:49;9.18;;;5.75;;
60867;SDS011;46702;48.370;10.794;2023-07-08T07:53:16;9.35;;;5.90;;
60867;SDS011;46702;48.370;10.794;2023-07-08T07:55:42;8.88;;;5.50;;
60867;SDS011;46702;48.370;10.794;2023-07-08T07:58:08;9.35;;;5.75;;
60867;SDS011;46702;48.370;10.794;2023-07-08T08:00:36;14.70;;;6.22;;
60867;SDS011;46702;48.370;10.794;2023-07-08T08:03:03;10.32;;;5.70;;
60867;SDS011;46702;48.370;10.794;2023-07-08T08:05:28;7.72;;;5.00;;
60867;SDS011;46702;48.370;10.794;2023-07-08T08:07:54;9.57;;;5.50;;
60867;SDS011;46702;48.370;10.794;2023-07-08T08:10:20;10.00;;;5.65;;
60867;SDS011;46702;48.370;10.794;2023-07-08T08:12:45;9.38;;;5.22;;
60867;SDS011;46702;48.370;10.794;2023-07-08T08:15:15;8.40;;;5.43;;
60867;SDS011;46702;48.370;10.794;2023-07-08T08:17:41;8.32;;;5.15;;
60867;SDS011;46702;48.370;10.794;2023-07-08T08:20:12;12.32;;;5.53;;
60867;SDS011;46702;48.370;10.794;2023-07-08T08:22:37;7.88;;;5.40;;
60867;SDS011;46702;48.370;10.794;2023-07-08T08:25:03;7.85;;;5.03;;
60867;SDS011;46702;48.370;10.794;2023-07-08T08:27:29;9.60;;;5.28;;
60867;SDS011;46702;48.370;10.794;2023-07-08T08:29:54;8.38;;;5.32;;
60867;SDS011;46702;48.370;10.794;2023-07-08T08:32:20;7.88;;;5.03;;
60867;SDS011;46702;48.370;10.794;2023-07-08T08:34:46;8.27;;;5.25;;
60867;SDS011;46702;48.370;10.794;2023-07-08T08:37:11;6.97;;;5.07;;
60867;SDS011;46702;48.370;10.794;2023-07-08T08:39:37;11.75;;;6.22;;
60867;SDS011;46702;48.370;10.794;2023-07-08T08:42:02;9.43;;;5.28;;
60867;SDS011;46702;48.370;10.794;2023-07-08T08:44:32;9.25;;;5.05;;
60867;SDS011;46702;48.370;10.794;2023-07-08T08:52:06;7.28;;;5.00;;
60867;SDS011;46702;48.370;10.794;2023-07-08T08:54:32;9.13;;;5.10;;
60867;SDS011;46702;48.370;10.794;2023-07-08T08:59:57;10.77;;;5.47;;
60867;SDS011;46702;48.370;10.794;2023-07-08T09:05:09;10.00;;;5.70;;
60867;SDS011;46702;48.370;10.794;2023-07-08T09:07:39;9.50;;;5.45;;
60867;SDS011;46702;48.370;10.794;2023-07-08T09:10:15;9.13;;;5.18;;
60867;SDS011;46702;48.370;10.794;2023-07-08T09:12:50;9.25;;;5.78;;
60867;SDS011;46702;48.370;10.794;2023-07-08T09:15:18;7.82;;;5.45;;
60867;SDS011;46702;48.370;10.794;2023-07-08T09:17:44;9.13;;;5.40;;
60867;SDS011;46702;48.370;10.794;2023-07-08T09:20:21;8.70;;;5.18;;
60867;SDS011;46702;48.370;10.794;2023-07-08T09:25:46;9.30;;;5.60;;
60867;SDS011;46702;48.370;10.794;2023-07-08T09:28:18;8.93;;;5.05;;
60867;SDS011;46702;48.370;10.794;2023-07-08T09:30:47;8.65;;;5.30;;
60867;SDS011;46702;48.370;10.794;2023-07-08T09:33:15;8.55;;;5.70;;
60867;SDS011;46702;48.370;10.794;2023-07-08T09:35:41;7.50;;;5.10;;
60867;SDS011;46702;48.370;10.794;2023-07-08T09:38:13;7.85;;;4.90;;
60867;SDS011;46702;48.370;10.794;2023-07-08T09:40:43;9.25;;;4.80;;
60867;SDS011;46702;48.370;10.794;2023-07-08T09:43:24;6.82;;;4.57;;
60867;SDS011;46702;48.370;10.794;2023-07-08T09:45:50;9.10;;;4.88;;
60867;SDS011;46702;48.370;10.794;2023-07-08T09:50:48;8.50;;;4.90;;
60867;SDS011;46702;48.370;10.794;2023-07-08T09:53:15;13.20;;;8.15;;
60867;SDS011;46702;48.370;10.794;2023-07-08T09:55:41;12.77;;;6.82;;
60867;SDS011;46702;48.370;10.794;2023-07-08T09:58:08;26.45;;;17.10;;
60867;SDS011;46702;48.370;10.794;2023-07-08T10:00:39;11.45;;;7.18;;
60867;SDS011;46702;48.370;10.794;2023-07-08T10:05:36;6.05;;;4.28;;
60867;SDS011;46702;48.370;10.794;2023-07-08T10:08:13;7.70;;;4.97;;
60867;SDS011;46702;48.370;10.794;2023-07-08T10:10:41;6.97;;;4.50;;
60867;SDS011;46702;48.370;10.794;2023-07-08T10:13:17;7.30;;;4.28;;
60867;SDS011;46702;48.370;10.794;2023-07-08T10:16:47;7.68;;;5.00;;
60867;SDS011;46702;48.370;10.794;2023-07-08T10:18:49;7.13;;;4.22;;
60867;SDS011;46702;48.370;10.794;2023-07-08T10:21:21;7.72;;;5.15;;
60867;SDS011;46702;48.370;10.794;2023-07-08T10:27:17;7.28;;;4.10;;
60867;SDS011;46702;48.370;10.794;2023-07-08T10:29:56;5.60;;;3.90;;
60867;SDS011;46702;48.370;10.794;2023-07-08T11:00:45;10.00;;;5.15;;
60867;SDS011;46702;48.370;10.794;2023-07-08T11:06:29;6.95;;;4.70;;
60867;SDS011;46702;48.370;10.794;2023-07-08T11:09:12;6.65;;;4.20;;
60867;SDS011;46702;48.370;10.794;2023-07-08T11:14:12;5.38;;;3.38;;
60867;SDS011;46702;48.370;10.794;2023-07-08T11:16:47;7.22;;;3.97;;
60867;SDS011;46702;48.370;10.794;2023-07-08T11:19:31;7.60;;;3.83;;
60867;SDS011;46702;48.370;10.794;2023-07-08T11:22:03;5.97;;;3.67;;
60867;SDS011;46702;48.370;10.794;2023-07-08T11:24:47;6.20;;;3.95;;
60867;SDS011;46702;48.370;10.794;2023-07-08T11:27:37;6.65;;;3.58;;
60867;SDS011;46702;48.370;10.794;2023-07-08T11:30:13;6.82;;;3.95;;
60867;SDS011;46702;48.370;10.794;2023-07-08T11:32:42;6.05;;;3.72;;
60867;SDS011;46702;48.370;10.794;2023-07-08T11:35:21;5.82;;;3.40;;
60867;SDS011;46702;48.370;10.794;2023-07-08T11:37:54;4.70;;;3.20;;
60867;SDS011;46702;48.370;10.794;2023-07-08T11:40:21;5.17;;;3.60;;
60867;SDS011;46702;48.370;10.794;2023-07-08T11:42:48;4.68;;;3.15;;
60867;SDS011;46702;48.370;10.794;2023-07-08T11:48:06;5.68;;;3.15;;
60867;SDS011;46702;48.370;10.794;2023-07-08T11:50:50;5.13;;;3.33;;
60867;SDS011;46702;48.370;10.794;2023-07-08T11:56:21;4.78;;;3.33;;
60867;SDS011;46702;48.370;10.794;2023-07-08T12:03:49;5.95;;;3.88;;
60867;SDS011;46702;48.370;10.794;2023-07-08T12:08:57;51.58;;;11.43;;
60867;SDS011;46702;48.370;10.794;2023-07-08T12:13:58;5.80;;;3.10;;
60867;SDS011;46702;48.370;10.794;2023-07-08T12:16:25;4.55;;;2.92;;
60867;SDS011;46702;48.370;10.794;2023-07-08T12:18:52;6.18;;;3.35;;
60867;SDS011;46702;48.370;10.794;2023-07-08T12:21:21;6.38;;;3.58;;
60867;SDS011;46702;48.370;10.794;2023-07-08T12:23:48;4.95;;;3.38;;
60867;SDS011;46702;48.370;10.794;2023-07-08T12:26:14;4.38;;;3.08;;
60867;SDS011;46702;48.370;10.794;2023-07-08T12:28:41;5.00;;;3.20;;
60867;SDS011;46702;48.370;10.794;2023-07-08T12:31:41;20.83;;;5.93;;
60867;SDS011;46702;48.370;10.794;2023-07-08T12:33:59;14.82;;;4.00;;
60867;SDS011;46702;48.370;10.794;2023-07-08T12:36:26;3.67;;;2.80;;
60867;SDS011;46702;48.370;10.794;2023-07-08T12:38:54;5.85;;;3.20;;
60867;SDS011;46702;48.370;10.794;2023-07-08T12:41:22;5.80;;;3.40;;
60867;SDS011;46702;48.370;10.794;2023-07-08T12:43:51;5.47;;;3.20;;
60867;SDS011;46702;48.370;10.794;2023-07-08T12:46:18;6.07;;;2.83;;
60867;SDS011;46702;48.370;10.794;2023-07-08T12:48:46;5.57;;;3.45;;
60867;SDS011;46702;48.370;10.794;2023-07-08T12:51:16;5.68;;;3.22;;
60867;SDS011;46702;48.370;10.794;2023-07-08T12:53:46;5.13;;;2.90;;
60867;SDS011;46702;48.370;10.794;2023-07-08T12:56:12;5.43;;;3.20;;
60867;SDS011;46702;48.370;10.794;2023-07-08T12:58:42;5.53;;;2.95;;
60867;SDS011;46702;48.370;10.794;2023-07-08T13:01:13;4.18;;;2.70;;
60867;SDS011;46702;48.370;10.794;2023-07-08T13:03:48;5.80;;;2.60;;
60867;SDS011;46702;48.370;10.794;2023-07-08T13:06:17;5.88;;;2.72;;
60867;SDS011;46702;48.370;10.794;2023-07-08T13:08:45;3.90;;;2.80;;
60867;SDS011;46702;48.370;10.794;2023-07-08T13:11:13;5.35;;;2.80;;
60867;SDS011;46702;48.370;10.794;2023-07-08T13:13:52;5.25;;;2.85;;
60867;SDS011;46702;48.370;10.794;2023-07-08T13:16:19;3.53;;;2.72;;
60867;SDS011;46702;48.370;10.794;2023-07-08T13:18:54;6.07;;;2.88;;
60867;SDS011;46702;48.370;10.794;2023-07-08T13:21:21;3.67;;;2.70;;
60867;SDS011;46702;48.370;10.794;2023-07-08T13:23:49;4.53;;;2.65;;
60867;SDS011;46702;48.370;10.794;2023-07-08T13:26:16;5.18;;;2.90;;
60867;SDS011;46702;48.370;10.794;2023-07-08T13:28:49;6.22;;;2.33;;
60867;SDS011;46702;48.370;10.794;2023-07-08T13:31:16;4.63;;;2.42;;
60867;SDS011;46702;48.370;10.794;2023-07-08T13:33:47;4.72;;;2.80;;
60867;SDS011;46702;48.370;10.794;2023-07-08T13:36:16;5.25;;;2.58;;
60867;SDS011;46702;48.370;10.794;2023-07-08T13:38:43;3.72;;;2.55;;
60867;SDS011;46702;48.370;10.794;2023-07-08T13:41:09;3.67;;;2.22;;
60867;SDS011;46702;48.370;10.794;2023-07-08T13:43:38;4.63;;;2.50;;
60867;SDS011;46702;48.370;10.794;2023-07-08T13:46:25;3.55;;;2.47;;
60867;SDS011;46702;48.370;10.794;2023-07-08T13:49:07;6.55;;;2.63;;
60867;SDS011;46702;48.370;10.794;2023-07-08T13:51:44;3.90;;;2.70;;
60867;SDS011;46702;48.370;10.794;2023-07-08T13:54:14;5.15;;;2.45;;
60867;SDS011;46702;48.370;10.794;2023-07-08T13:56:44;3.30;;;2.45;;
60867;SDS011;46702;48.370;10.794;2023-07-08T13:59:12;3.55;;;2.67;;
60867;SDS011;46702;48.370;10.794;2023-07-08T14:01:43;3.40;;;2.45;;
60867;SDS011;46702;48.370;10.794;2023-07-08T14:04:13;3.77;;;2.33;;
60867;SDS011;46702;48.370;10.794;2023-07-08T14:06:41;2.90;;;2.35;;
60867;SDS011;46702;48.370;10.794;2023-07-08T14:09:17;3.75;;;2.30;;
60867;SDS011;46702;48.370;10.794;2023-07-08T14:11:45;3.42;;;2.30;;
60867;SDS011;46702;48.370;10.794;2023-07-08T14:14:11;5.13;;;2.47;;
60867;SDS011;46702;48.370;10.794;2023-07-08T14:16:38;6.07;;;2.70;;
60867;SDS011;46702;48.370;10.794;2023-07-08T14:19:07;3.70;;;2.42;;
60867;SDS011;46702;48.370;10.794;2023-07-08T14:21:38;5.75;;;2.80;;
60867;SDS011;46702;48.370;10.794;2023-07-08T14:24:10;4.90;;;2.20;;
60867;SDS011;46702;48.370;10.794;2023-07-08T14:26:38;4.82;;;2.70;;
60867;SDS011;46702;48.370;10.794;2023-07-08T14:29:06;4.95;;;2.88;;
60867;SDS011;46702;48.370;10.794;2023-07-08T14:31:32;4.13;;;2.40;;
60867;SDS011;46702;48.370;10.794;2023-07-08T14:34:00;6.90;;;2.83;;
60867;SDS011;46702;48.370;10.794;2023-07-08T14:36:29;5.43;;;2.38;;
60867;SDS011;46702;48.370;10.794;2023-07-08T14:38:55;2.80;;;2.10;;
60867;SDS011;46702;48.370;10.794;2023-07-08T14:41:20;4.03;;;2.20;;
60867;SDS011;46702;48.370;10.794;2023-07-08T14:43:46;3.38;;;2.00;;
60867;SDS011;46702;48.370;10.794;2023-07-08T14:46:11;2.85;;;2.13;;
60867;SDS011;46702;48.370;10.794;2023-07-08T14:48:37;2.17;;;1.90;;
60867;SDS011;46702;48.370;10.794;2023-07-08T14:51:03;3.05;;;2.30;;
60867;SDS011;46702;48.370;10.794;2023-07-08T14:53:28;2.72;;;2.17;;
60867;SDS011;46702;48.370;10.794;2023-07-08T14:55:54;5.10;;;2.40;;
60867;SDS011;46702;48.370;10.794;2023-07-08T15:00:49;4.22;;;2.35;;
60867;SDS011;46702;48.370;10.794;2023-07-08T15:03:16;3.95;;;2.40;;
60867;SDS011;46702;48.370;10.794;2023-07-08T15:05:42;2.72;;;2.45;;
60867;SDS011;46702;48.370;10.794;2023-07-08T15:08:07;4.65;;;2.45;;
60867;SDS011;46702;48.370;10.794;2023-07-08T15:10:33;4.50;;;2.45;;
60867;SDS011;46702;48.370;10.794;2023-07-08T15:13:00;3.55;;;2.20;;
60867;SDS011;46702;48.370;10.794;2023-07-08T15:15:28;2.93;;;2.20;;
60867;SDS011;46702;48.370;10.794;2023-07-08T15:17:57;3.05;;;2.40;;
60867;SDS011;46702;48.370;10.794;2023-07-08T15:20:24;3.00;;;2.40;;
60867;SDS011;46702;48.370;10.794;2023-07-08T15:22:50;3.92;;;2.70;;
60867;SDS011;46702;48.370;10.794;2023-07-08T15:25:16;3.78;;;2.55;;
60867;SDS011;46702;48.370;10.794;2023-07-08T15:27:45;3.63;;;2.45;;
60867;SDS011;46702;48.370;10.794;2023-07-08T15:30:19;5.00;;;2.70;;
60867;SDS011;46702;48.370;10.794;2023-07-08T15:32:47;3.75;;;2.22;;
60867;SDS011;46702;48.370;10.794;2023-07-08T15:35:14;4.00;;;2.47;;
60867;SDS011;46702;48.370;10.794;2023-07-08T15:37:42;4.45;;;2.50;;
60867;SDS011;46702;48.370;10.794;2023-07-08T15:40:09;6.53;;;2.28;;
60867;SDS011;46702;48.370;10.794;2023-07-08T15:42:37;5.72;;;2.65;;
60867;SDS011;46702;48.370;10.794;2023-07-08T15:45:18;4.07;;;2.38;;
60867;SDS011;46702;48.370;10.794;2023-07-08T15:47:50;4.53;;;2.75;;
60867;SDS011;46702;48.370;10.794;2023-07-08T15:50:17;3.47;;;2.05;;
60867;SDS011;46702;48.370;10.794;2023-07-08T15:52:45;3.75;;;2.30;;
60867;SDS011;46702;48.370;10.794;2023-07-08T15:55:11;3.38;;;2.30;;
60867;SDS011;46702;48.370;10.794;2023-07-08T15:57:48;3.40;;;2.10;;
60867;SDS011;46702;48.370;10.794;2023-07-08T16:00:19;3.55;;;2.58;;
60867;SDS011;46702;48.370;10.794;2023-07-08T16:02:49;4.78;;;2.40;;
60867;SDS011;46702;48.370;10.794;2023-07-08T16:05:18;3.88;;;2.58;;